createdAt,value
2018-10-09T00:00:10.100Z,11.20
2018-10-09T00:02:39.670Z,9.10
2018-10-09T00:07:45.235Z,8.77
2018-10-09T00:10:15.295Z,9.17
2018-10-09T00:12:44.470Z,9.77
2018-10-09T00:15:13.686Z,9.63
2018-10-09T00:17:42.834Z,9.47
2018-10-09T00:20:19.314Z,12.83
2018-10-09T00:22:48.519Z,12.97
2018-10-09T00:25:17.631Z,9.93
2018-10-09T00:27:48.076Z,10.97
2018-10-09T00:30:18.576Z,10.83
2018-10-09T00:32:48.170Z,14.90
2018-10-09T00:35:17.283Z,12.93
2018-10-09T00:37:47.446Z,9.20
2018-10-09T00:40:17.320Z,12.93
2018-10-09T00:42:49.611Z,6.80
2018-10-09T00:45:18.807Z,9.37
2018-10-09T00:47:47.983Z,10.70
2018-10-09T00:50:16.924Z,10.13
2018-10-09T00:52:47.856Z,10.00
2018-10-09T00:55:16.982Z,12.13
2018-10-09T00:57:46.171Z,9.70
2018-10-09T01:00:15.624Z,8.20
2018-10-09T01:02:45.242Z,6.83
2018-10-09T01:05:16.011Z,8.53
2018-10-09T01:07:45.272Z,12.60
2018-10-09T01:10:14.648Z,9.13
2018-10-09T01:12:43.810Z,9.03
2018-10-09T01:15:13.021Z,8.63
2018-10-09T01:17:42.204Z,9.73
2018-10-09T01:20:11.189Z,11.03
2018-10-09T01:22:40.401Z,17.67
2018-10-09T01:25:12.564Z,10.97
2018-10-09T01:27:41.716Z,10.47
2018-10-09T01:30:10.844Z,10.10
2018-10-09T01:32:40.299Z,10.23
2018-10-09T01:35:09.409Z,9.43
2018-10-09T01:37:38.685Z,10.23
2018-10-09T01:40:07.735Z,8.10
2018-10-09T01:42:37.109Z,10.30
2018-10-09T01:45:06.377Z,11.90
2018-10-09T01:47:35.454Z,8.50
2018-10-09T01:50:04.619Z,7.53
2018-10-09T01:52:36.043Z,7.40
2018-10-09T01:55:05.759Z,9.20
2018-10-09T01:57:34.903Z,8.70
2018-10-09T02:00:04.405Z,9.07
2018-10-09T02:02:33.518Z,11.67
2018-10-09T02:05:03.416Z,11.93
2018-10-09T02:07:32.885Z,10.37
2018-10-09T02:10:01.967Z,10.80
2018-10-09T02:12:31.047Z,10.97
2018-10-09T02:15:05.145Z,10.17
2018-10-09T02:17:34.229Z,11.47
2018-10-09T02:20:03.047Z,11.67
2018-10-09T02:22:31.857Z,9.83
2018-10-09T02:25:03.411Z,13.57
2018-10-09T02:27:32.650Z,13.27
2018-10-09T02:30:02.977Z,15.37
2018-10-09T02:32:32.161Z,16.37
2018-10-09T02:35:01.805Z,14.23
2018-10-09T02:37:30.916Z,12.10
2018-10-09T02:40:00.155Z,13.67
2018-10-09T02:42:30.505Z,17.53
2018-10-09T02:44:59.969Z,14.13
2018-10-09T02:47:28.955Z,12.83
2018-10-09T02:49:58.195Z,16.17
2018-10-09T02:52:27.289Z,15.50
2018-10-09T02:54:56.407Z,14.97
2018-10-09T02:57:25.423Z,15.33
2018-10-09T02:59:54.301Z,14.33
2018-10-09T03:02:23.526Z,14.53
2018-10-09T03:04:53.519Z,14.17
2018-10-09T03:07:23.071Z,15.07
2018-10-09T03:09:52.184Z,13.27
2018-10-09T03:12:22.101Z,14.70
2018-10-09T03:14:51.259Z,13.63
2018-10-09T03:17:20.750Z,14.57
2018-10-09T03:19:50.085Z,15.03
2018-10-09T03:22:19.221Z,14.50
2018-10-09T03:24:55.509Z,14.30
2018-10-09T03:27:24.815Z,14.23
2018-10-09T03:29:54.035Z,21.03
2018-10-09T03:32:23.259Z,15.10
2018-10-09T03:34:52.394Z,13.07
2018-10-09T03:37:21.631Z,13.30
2018-10-09T03:39:51.399Z,13.93
2018-10-09T03:42:20.568Z,16.10
2018-10-09T03:44:49.730Z,13.97
2018-10-09T03:47:19.064Z,13.63
2018-10-09T03:49:48.190Z,11.93
2018-10-09T03:52:18.075Z,15.23
2018-10-09T03:54:47.294Z,13.07
2018-10-09T03:57:16.774Z,12.30
2018-10-09T03:59:45.952Z,11.80
2018-10-09T04:02:15.429Z,12.93
2018-10-09T04:04:46.756Z,13.00
2018-10-09T04:07:16.268Z,12.40
2018-10-09T04:09:45.446Z,12.63
2018-10-09T04:12:14.601Z,18.17
2018-10-09T04:14:43.729Z,15.70
2018-10-09T04:17:14.268Z,17.80
2018-10-09T04:19:43.427Z,14.50
2018-10-09T04:22:19.094Z,9.77
2018-10-09T04:24:48.218Z,12.73
2018-10-09T04:27:17.783Z,13.90
2018-10-09T04:29:47.184Z,16.73
2018-10-09T04:32:16.396Z,16.47
2018-10-09T04:34:45.677Z,10.37
2018-10-09T04:37:14.979Z,15.73
2018-10-09T04:39:44.164Z,14.90
2018-10-09T04:42:13.339Z,12.83
2018-10-09T04:44:47.549Z,13.27
2018-10-09T04:47:17.760Z,19.07
2018-10-09T04:49:46.969Z,15.77
2018-10-09T04:52:16.153Z,12.03
2018-10-09T04:54:45.363Z,12.63
2018-10-09T04:59:57.659Z,12.60
2018-10-09T05:02:27.044Z,11.67
2018-10-09T05:04:56.246Z,15.70
2018-10-09T05:07:25.478Z,12.43
2018-10-09T05:09:55.260Z,21.13
2018-10-09T05:12:26.982Z,17.70
2018-10-09T05:14:56.488Z,22.13
2018-10-09T05:17:25.744Z,21.07
2018-10-09T05:19:55.004Z,19.50
2018-10-09T05:22:24.348Z,19.17
2018-10-09T05:25:01.204Z,18.60
2018-10-09T05:27:33.552Z,15.07
2018-10-09T05:30:02.844Z,14.33
2018-10-09T05:32:36.934Z,20.97
2018-10-09T05:35:05.883Z,20.70
2018-10-09T05:37:35.275Z,18.47
2018-10-09T05:40:04.849Z,15.40
2018-10-09T05:42:35.370Z,18.03
2018-10-09T05:45:04.556Z,15.43
2018-10-09T05:47:33.734Z,19.40
2018-10-09T05:50:05.393Z,17.60
2018-10-09T05:52:34.647Z,16.90
2018-10-09T05:55:04.075Z,16.37
2018-10-09T05:57:33.344Z,19.17
2018-10-09T06:00:02.779Z,20.27
2018-10-09T06:02:32.008Z,16.00
2018-10-09T06:05:01.210Z,13.47
2018-10-09T06:07:30.194Z,15.67
2018-10-09T06:09:59.531Z,15.83
2018-10-09T06:12:30.030Z,14.90
2018-10-09T06:15:00.873Z,15.90
2018-10-09T06:17:30.085Z,19.17
2018-10-09T06:19:59.494Z,13.90
2018-10-09T06:22:28.745Z,16.40
2018-10-09T06:24:59.360Z,20.57
2018-10-09T06:27:28.372Z,20.53
2018-10-09T06:29:57.549Z,22.13
2018-10-09T06:32:27.569Z,20.43
2018-10-09T06:34:57.635Z,23.63
2018-10-09T06:37:27.700Z,16.70
2018-10-09T06:39:58.720Z,16.67
2018-10-09T06:42:27.799Z,17.87
2018-10-09T06:44:57.049Z,20.27
2018-10-09T06:47:27.489Z,19.50
2018-10-09T06:49:56.616Z,16.27
2018-10-09T06:52:25.773Z,12.37
2018-10-09T06:54:54.973Z,14.93
2018-10-09T06:57:30.090Z,13.93
2018-10-09T06:59:59.397Z,14.70
2018-10-09T07:02:28.590Z,15.93
2018-10-09T07:04:58.060Z,13.93
2018-10-09T07:07:27.526Z,9.37
2018-10-09T07:09:56.314Z,16.67
2018-10-09T07:12:25.267Z,13.63
2018-10-09T07:14:55.679Z,14.87
2018-10-09T07:17:24.890Z,13.30
2018-10-09T07:19:54.013Z,12.73
2018-10-09T07:22:23.551Z,19.80
2018-10-09T07:24:52.754Z,18.23
2018-10-09T07:27:22.306Z,14.77
2018-10-09T07:29:52.256Z,15.70
2018-10-09T07:32:21.278Z,19.23
2018-10-09T07:34:51.396Z,16.80
2018-10-09T07:37:20.539Z,13.80
2018-10-09T07:39:49.677Z,17.73
2018-10-09T07:42:18.849Z,16.93
2018-10-09T07:44:48.554Z,13.23
2018-10-09T07:47:25.276Z,11.63
2018-10-09T07:49:55.203Z,15.57
2018-10-09T07:52:24.473Z,16.10
2018-10-09T07:54:54.314Z,18.07
2018-10-09T07:57:23.620Z,14.53
2018-10-09T07:59:52.756Z,18.83
2018-10-09T08:02:22.198Z,20.60
2018-10-09T08:04:51.488Z,23.03
2018-10-09T08:07:20.659Z,22.93
2018-10-09T08:09:50.785Z,22.80
2018-10-09T08:12:21.690Z,20.40
2018-10-09T08:14:51.873Z,25.40
2018-10-09T08:17:21.503Z,30.90
2018-10-09T08:19:52.574Z,24.27
2018-10-09T08:22:22.696Z,27.17
2018-10-09T08:24:55.578Z,24.47
2018-10-09T08:27:26.714Z,23.70
2018-10-09T08:29:56.225Z,27.50
2018-10-09T08:32:27.303Z,27.50
2018-10-09T08:34:56.578Z,29.03
2018-10-09T08:37:34.101Z,23.37
2018-10-09T08:40:05.778Z,26.03
2018-10-09T08:42:37.795Z,29.70
2018-10-09T08:45:08.693Z,27.97
2018-10-09T08:47:38.745Z,27.87
2018-10-09T08:50:07.987Z,33.33
2018-10-09T08:52:38.595Z,26.93
2018-10-09T08:55:08.675Z,23.70
2018-10-09T08:57:40.039Z,24.77
2018-10-09T09:00:10.423Z,23.47
2018-10-09T09:02:39.684Z,21.40
2018-10-09T09:05:11.694Z,26.90
2018-10-09T09:07:41.324Z,20.60
2018-10-09T09:12:35.196Z,29.90
2018-10-09T09:15:06.563Z,24.43
2018-10-09T09:17:35.958Z,22.93
2018-10-09T09:20:06.369Z,33.37
2018-10-09T09:22:35.634Z,31.63
2018-10-09T09:25:05.809Z,28.43
2018-10-09T09:27:36.789Z,28.23
2018-10-09T09:30:10.629Z,22.80
2018-10-09T09:32:39.900Z,25.23
2018-10-09T09:35:09.084Z,32.03
2018-10-09T09:37:38.271Z,31.60
2018-10-09T09:40:08.153Z,29.43
2018-10-09T09:42:38.424Z,30.57
2018-10-09T09:45:08.803Z,43.80
2018-10-09T09:47:37.941Z,34.40
2018-10-09T09:50:07.174Z,29.80
2018-10-09T09:52:37.184Z,30.20
2018-10-09T09:55:06.355Z,38.50
2018-10-09T09:57:36.173Z,30.90
2018-10-09T10:00:06.095Z,29.47
2018-10-09T10:02:35.305Z,33.70
2018-10-09T10:07:41.979Z,30.77
2018-10-09T10:10:12.313Z,33.30
2018-10-09T10:12:42.413Z,34.23
2018-10-09T10:15:12.715Z,31.13
2018-10-09T10:17:41.877Z,33.07
2018-10-09T10:20:12.419Z,33.30
2018-10-09T10:22:41.217Z,35.30
2018-10-09T10:25:12.928Z,29.20
2018-10-09T10:27:42.127Z,30.37
2018-10-09T10:30:11.894Z,28.30
2018-10-09T10:32:40.833Z,35.37
2018-10-09T10:35:11.438Z,31.57
2018-10-09T10:37:42.373Z,34.30
2018-10-09T10:40:13.270Z,42.57
2018-10-09T10:42:43.048Z,36.93
2018-10-09T10:45:13.034Z,31.50
2018-10-09T10:47:44.423Z,33.27
2018-10-09T10:50:13.783Z,38.37
2018-10-09T10:52:45.554Z,35.77
2018-10-09T10:55:14.748Z,32.13
2018-10-09T10:57:44.018Z,35.00
2018-10-09T11:00:14.840Z,42.40
2018-10-09T11:02:45.792Z,32.43
2018-10-09T11:05:15.931Z,32.00
2018-10-09T11:07:46.176Z,31.27
2018-10-09T11:10:15.979Z,29.53
2018-10-09T11:12:45.523Z,28.73
2018-10-09T11:15:15.874Z,27.83
2018-10-09T11:17:47.572Z,26.47
2018-10-09T11:20:16.884Z,27.23
2018-10-09T11:22:46.148Z,32.03
2018-10-09T11:25:16.010Z,26.20
2018-10-09T11:27:48.573Z,28.57
2018-10-09T11:30:21.379Z,25.27
2018-10-09T11:32:52.257Z,23.20
2018-10-09T11:35:22.098Z,26.37
2018-10-09T11:37:56.602Z,28.53
2018-10-09T11:40:26.764Z,21.97
2018-10-09T11:43:00.338Z,20.43
2018-10-09T11:45:33.591Z,25.60
2018-10-09T11:48:03.754Z,26.27
2018-10-09T11:50:33.028Z,28.87
2018-10-09T11:53:03.703Z,21.13
2018-10-09T11:55:33.444Z,22.33
2018-10-09T11:58:04.671Z,25.53
2018-10-09T12:00:36.259Z,19.10
2018-10-09T12:03:07.777Z,20.03
2018-10-09T12:05:39.168Z,18.10
2018-10-09T12:08:10.294Z,17.93
2018-10-09T12:10:40.162Z,15.93
2018-10-09T12:13:08.956Z,17.33
2018-10-09T12:15:38.425Z,14.70
2018-10-09T12:18:08.340Z,17.83
2018-10-09T12:20:37.512Z,15.20
2018-10-09T12:23:07.613Z,15.90
2018-10-09T12:25:42.237Z,14.00
2018-10-09T12:28:12.493Z,16.20
2018-10-09T12:30:42.794Z,19.67
2018-10-09T12:33:11.993Z,18.00
2018-10-09T12:35:41.197Z,17.93
2018-10-09T12:38:11.057Z,16.33
2018-10-09T12:40:48.362Z,13.20
2018-10-09T12:43:18.606Z,14.27
2018-10-09T12:45:48.727Z,12.27
2018-10-09T12:48:24.471Z,19.27
2018-10-09T12:50:55.339Z,18.27
2018-10-09T12:53:24.714Z,18.40
2018-10-09T12:55:54.619Z,19.10
2018-10-09T12:58:25.491Z,16.50
2018-10-09T13:00:56.393Z,23.80
2018-10-09T13:03:26.769Z,16.50
2018-10-09T13:05:58.383Z,14.30
2018-10-09T13:08:30.733Z,15.47
2018-10-09T13:11:02.797Z,14.30
2018-10-09T13:13:32.968Z,13.43
2018-10-09T13:16:02.379Z,10.90
2018-10-09T13:18:34.199Z,16.10
2018-10-09T13:21:06.349Z,16.30
2018-10-09T13:23:36.372Z,19.00
2018-10-09T13:26:06.328Z,20.77
2018-10-09T13:28:36.837Z,15.43
2018-10-09T13:31:08.156Z,17.50
2018-10-09T13:33:37.556Z,16.93
2018-10-09T13:36:08.186Z,20.00
2018-10-09T13:38:37.742Z,16.80
2018-10-09T13:41:09.028Z,14.90
2018-10-09T13:43:40.260Z,22.33
2018-10-09T13:46:09.951Z,17.93
2018-10-09T13:48:39.168Z,13.30
2018-10-09T13:51:08.589Z,19.60
2018-10-09T13:53:40.084Z,17.53
2018-10-09T13:56:10.062Z,19.53
2018-10-09T13:58:40.812Z,19.57
2018-10-09T14:01:10.837Z,17.30
2018-10-09T14:03:41.177Z,16.03
2018-10-09T14:06:12.207Z,13.67
2018-10-09T14:08:44.328Z,18.97
2018-10-09T14:11:14.213Z,13.27
2018-10-09T14:13:43.478Z,13.17
2018-10-09T14:16:13.200Z,14.30
2018-10-09T14:18:42.496Z,13.57
2018-10-09T14:21:15.207Z,16.77
2018-10-09T14:23:44.456Z,9.27
2018-10-09T14:26:13.881Z,11.87
2018-10-09T14:28:43.137Z,10.97
2018-10-09T14:31:13.221Z,12.50
2018-10-09T14:33:46.396Z,18.17
2018-10-09T14:36:17.153Z,14.40
2018-10-09T14:38:46.582Z,14.03
2018-10-09T14:41:15.804Z,13.73
2018-10-09T14:43:45.036Z,8.63
2018-10-09T14:46:14.257Z,12.60
2018-10-09T14:48:43.532Z,10.47
2018-10-09T14:51:12.678Z,10.60
2018-10-09T14:53:41.882Z,11.97
2018-10-09T14:56:12.033Z,6.57
2018-10-09T14:58:41.343Z,10.73
2018-10-09T15:01:10.531Z,7.30
2018-10-09T15:03:39.703Z,10.27
2018-10-09T15:06:09.778Z,8.77
2018-10-09T15:08:40.203Z,7.63
2018-10-09T15:11:13.382Z,8.97
2018-10-09T15:13:43.751Z,5.53
2018-10-09T15:16:13.068Z,6.83
2018-10-09T15:18:43.506Z,7.10
2018-10-09T15:21:14.981Z,7.37
2018-10-09T15:23:44.742Z,8.53
2018-10-09T15:26:14.311Z,11.27
2018-10-09T15:28:43.756Z,26.90
2018-10-09T15:31:15.679Z,41.03
2018-10-09T15:33:45.348Z,40.47
2018-10-09T15:36:14.641Z,31.93
2018-10-09T15:38:44.242Z,21.17
2018-10-09T15:41:17.564Z,16.50
2018-10-09T15:43:49.319Z,19.97
2018-10-09T15:46:19.890Z,19.30
2018-10-09T15:48:49.131Z,14.33
2018-10-09T15:51:18.863Z,12.17
2018-10-09T15:53:57.528Z,8.37
2018-10-09T15:56:27.451Z,8.03
2018-10-09T15:59:03.008Z,8.27
2018-10-09T16:01:33.041Z,8.03
2018-10-09T16:04:02.368Z,5.97
2018-10-09T16:06:31.743Z,7.23
2018-10-09T16:09:03.112Z,8.57
2018-10-09T16:11:33.357Z,6.77
2018-10-09T16:14:02.588Z,9.50
2018-10-09T16:16:33.692Z,8.83
2018-10-09T16:19:06.342Z,6.17
2018-10-09T16:21:37.439Z,8.30
2018-10-09T16:24:07.860Z,9.23
2018-10-09T16:26:39.228Z,7.07
2018-10-09T16:29:11.349Z,7.17
2018-10-09T16:31:51.858Z,7.23
2018-10-09T16:34:23.177Z,7.83
2018-10-09T16:36:53.611Z,7.30
2018-10-09T16:39:25.073Z,7.70
2018-10-09T16:41:59.688Z,6.10
2018-10-09T16:44:32.345Z,7.63
2018-10-09T16:47:06.192Z,8.20
2018-10-09T16:49:42.388Z,10.33
2018-10-09T16:52:12.690Z,6.83
2018-10-09T16:54:41.976Z,7.60
2018-10-09T16:57:13.080Z,10.97
2018-10-09T16:59:45.695Z,8.83
2018-10-09T17:02:15.806Z,10.03
2018-10-09T17:04:45.095Z,9.10
2018-10-09T17:07:14.587Z,10.80
2018-10-09T17:09:45.200Z,10.50
2018-10-09T17:12:14.750Z,9.63
2018-10-09T17:14:44.723Z,7.83
2018-10-09T17:17:15.476Z,9.03
2018-10-09T17:19:45.607Z,9.23
2018-10-09T17:22:14.549Z,9.57
2018-10-09T17:24:45.225Z,8.40
2018-10-09T17:27:14.762Z,8.33
2018-10-09T17:29:43.883Z,8.10
2018-10-09T17:32:13.016Z,10.37
2018-10-09T17:34:42.464Z,10.50
2018-10-09T17:37:11.791Z,14.80
2018-10-09T17:39:41.724Z,9.80
2018-10-09T17:42:14.011Z,10.53
2018-10-09T17:44:46.713Z,11.50
2018-10-09T17:47:16.212Z,14.50
2018-10-09T17:49:50.831Z,9.30
2018-10-09T17:52:21.253Z,11.87
2018-10-09T17:54:51.243Z,10.70
2018-10-09T17:57:23.682Z,9.50
2018-10-09T17:59:55.442Z,10.47
2018-10-09T18:02:24.885Z,9.60
2018-10-09T18:04:54.292Z,9.53
2018-10-09T18:07:24.683Z,8.97
2018-10-09T18:09:56.537Z,11.73
2018-10-09T18:12:26.001Z,10.00
2018-10-09T18:14:57.046Z,8.93
2018-10-09T18:17:26.497Z,12.10
2018-10-09T18:19:57.385Z,9.57
2018-10-09T18:22:28.254Z,13.20
2018-10-09T18:25:00.387Z,13.07
2018-10-09T18:27:30.718Z,14.47
2018-10-09T18:30:03.713Z,14.07
2018-10-09T18:32:33.963Z,16.77
2018-10-09T18:35:03.282Z,17.57
2018-10-09T18:37:32.324Z,15.30
2018-10-09T18:40:01.790Z,15.07
2018-10-09T18:42:31.565Z,12.03
2018-10-09T18:45:02.871Z,11.27
2018-10-09T18:47:37.381Z,10.97
2018-10-09T18:50:10.251Z,10.70
2018-10-09T18:52:39.598Z,11.23
2018-10-09T18:55:10.936Z,13.50
2018-10-09T18:57:39.795Z,13.67
2018-10-09T19:00:12.411Z,13.37
2018-10-09T19:02:42.092Z,11.30
2018-10-09T19:05:14.728Z,9.40
2018-10-09T19:07:47.551Z,9.17
2018-10-09T19:10:16.868Z,11.10
2018-10-09T19:12:47.191Z,9.07
2018-10-09T19:15:16.531Z,9.90
2018-10-09T19:17:46.656Z,9.67
2018-10-09T19:20:16.451Z,11.03
2018-10-09T19:22:50.802Z,12.73
2018-10-09T19:25:21.573Z,10.30
2018-10-09T19:27:50.988Z,11.53
2018-10-09T19:30:21.624Z,9.60
2018-10-09T19:32:51.490Z,10.30
2018-10-09T19:35:23.414Z,7.60
2018-10-09T19:37:52.772Z,9.53
2018-10-09T19:40:23.328Z,9.57
2018-10-09T19:42:54.566Z,10.47
2018-10-09T19:45:24.965Z,9.87
2018-10-09T19:47:55.625Z,8.57
2018-10-09T19:50:25.554Z,10.43
2018-10-09T19:52:55.113Z,12.53
2018-10-09T19:55:25.777Z,7.67
2018-10-09T19:57:57.329Z,8.80
2018-10-09T20:00:29.617Z,7.90
2018-10-09T20:03:01.349Z,8.33
2018-10-09T20:08:34.351Z,9.33
2018-10-09T20:11:04.896Z,9.80
2018-10-09T20:13:36.657Z,8.87
2018-10-09T20:16:07.635Z,11.07
2018-10-09T20:18:37.093Z,10.87
2018-10-09T20:21:09.955Z,9.70
2018-10-09T20:23:40.373Z,10.93
2018-10-09T20:26:10.449Z,10.33
2018-10-09T20:28:41.758Z,9.47
2018-10-09T20:31:15.167Z,9.53
2018-10-09T20:33:45.996Z,12.77
2018-10-09T20:36:15.402Z,8.13
2018-10-09T20:38:44.980Z,11.83
2018-10-09T20:41:14.602Z,10.10
2018-10-09T20:43:44.419Z,10.00
2018-10-09T20:46:15.187Z,11.70
2018-10-09T20:48:44.401Z,8.73
2018-10-09T20:51:16.093Z,10.97
2018-10-09T20:53:45.368Z,12.93
2018-10-09T20:56:16.233Z,11.60
2018-10-09T20:58:46.877Z,11.87
2018-10-09T21:01:16.160Z,12.30
2018-10-09T21:03:46.061Z,10.37
2018-10-09T21:06:16.621Z,9.60
2018-10-09T21:08:46.026Z,12.13
2018-10-09T21:11:15.875Z,11.77
2018-10-09T21:13:47.074Z,11.23
2018-10-09T21:16:18.325Z,9.73
2018-10-09T21:18:50.543Z,12.60
2018-10-09T21:21:22.081Z,11.10
2018-10-09T21:23:51.553Z,11.50
2018-10-09T21:26:23.421Z,11.53
2018-10-09T21:28:52.717Z,12.20
2018-10-09T21:31:24.573Z,13.23
2018-10-09T21:33:55.471Z,11.00
2018-10-09T21:36:26.080Z,11.73
2018-10-09T21:38:55.549Z,12.87
2018-10-09T21:41:24.847Z,12.27
2018-10-09T21:43:54.999Z,10.70
2018-10-09T21:46:24.669Z,10.63
2018-10-09T21:48:54.552Z,12.23
2018-10-09T21:51:26.857Z,11.97
2018-10-09T21:53:57.700Z,13.57
2018-10-09T21:56:29.300Z,12.60
2018-10-09T21:58:58.586Z,12.30
2018-10-09T22:01:27.574Z,14.17
2018-10-09T22:03:56.882Z,14.47
2018-10-09T22:06:26.312Z,18.73
2018-10-09T22:08:55.600Z,19.10
2018-10-09T22:11:25.206Z,16.03
2018-10-09T22:13:54.606Z,12.07
2018-10-09T22:16:23.854Z,12.97
2018-10-09T22:18:53.192Z,14.17
2018-10-09T22:21:23.586Z,12.07
2018-10-09T22:23:53.837Z,13.70
2018-10-09T22:26:23.290Z,12.83
2018-10-09T22:28:52.492Z,14.07
2018-10-09T22:31:21.794Z,15.53
2018-10-09T22:33:51.046Z,15.93
2018-10-09T22:36:21.380Z,20.23
2018-10-09T22:38:52.160Z,14.90
2018-10-09T22:41:21.460Z,19.53
2018-10-09T22:43:50.728Z,16.70
2018-10-09T22:46:20.870Z,16.93
2018-10-09T22:48:50.784Z,17.27
2018-10-09T22:51:21.896Z,15.10
2018-10-09T22:53:51.285Z,15.30
2018-10-09T22:56:20.549Z,15.50
2018-10-09T22:58:49.849Z,16.50
2018-10-09T23:01:19.730Z,14.07
2018-10-09T23:03:48.994Z,15.00
2018-10-09T23:06:18.451Z,12.60
2018-10-09T23:08:47.825Z,14.70
2018-10-09T23:11:17.445Z,13.80
2018-10-09T23:13:48.889Z,12.93
2018-10-09T23:16:17.904Z,13.20
2018-10-09T23:18:47.465Z,12.00
2018-10-09T23:21:16.808Z,15.17
2018-10-09T23:23:46.575Z,12.43
2018-10-09T23:26:16.045Z,12.10
2018-10-09T23:28:45.468Z,13.37
2018-10-09T23:31:15.743Z,12.80
2018-10-09T23:33:49.751Z,18.17
2018-10-09T23:36:19.043Z,17.03
2018-10-09T23:38:49.273Z,16.50
2018-10-09T23:41:19.065Z,14.63
2018-10-09T23:43:48.285Z,14.77
2018-10-09T23:46:17.398Z,14.80
2018-10-09T23:48:46.590Z,13.90
2018-10-09T23:51:16.260Z,17.33
2018-10-09T23:53:45.394Z,17.90
2018-10-09T23:56:18.282Z,15.83
2018-10-09T23:58:47.413Z,16.80
